sensor_id;sensor_type;location;lat;lon;timestamp;P1;durP1;ratioP1;P2;durP2;ratioP2
22786;SDS011;63134;52.020;4.714;2023-04-23T00:02:38;309.38;;;102.38;;
22786;SDS011;63134;52.020;4.714;2023-04-23T00:05:26;308.15;;;105.15;;
22786;SDS011;63134;52.020;4.714;2023-04-23T00:08:11;340.70;;;107.95;;
22786;SDS011;63134;52.020;4.714;2023-04-23T00:10:59;326.67;;;103.65;;
22786;SDS011;63134;52.020;4.714;2023-04-23T00:13:45;339.10;;;108.88;;
22786;SDS011;63134;52.020;4.714;2023-04-23T00:16:36;358.25;;;112.22;;
22786;SDS011;63134;52.020;4.714;2023-04-23T00:19:23;328.88;;;106.40;;
22786;SDS011;63134;52.020;4.714;2023-04-23T00:22:09;324.45;;;112.20;;
22786;SDS011;63134;52.020;4.714;2023-04-23T00:24:54;350.23;;;114.75;;
22786;SDS011;63134;52.020;4.714;2023-04-23T00:27:39;357.17;;;115.85;;
22786;SDS011;63134;52.020;4.714;2023-04-23T00:30:25;358.30;;;115.20;;
22786;SDS011;63134;52.020;4.714;2023-04-23T00:33:11;357.90;;;114.25;;
22786;SDS011;63134;52.020;4.714;2023-04-23T00:35:57;348.85;;;115.05;;
22786;SDS011;63134;52.020;4.714;2023-04-23T00:38:42;343.40;;;116.68;;
22786;SDS011;63134;52.020;4.714;2023-04-23T00:41:28;332.17;;;114.25;;
22786;SDS011;63134;52.020;4.714;2023-04-23T00:44:20;340.80;;;112.85;;
22786;SDS011;63134;52.020;4.714;2023-04-23T00:47:06;310.13;;;109.10;;
22786;SDS011;63134;52.020;4.714;2023-04-23T00:49:52;336.50;;;112.38;;
22786;SDS011;63134;52.020;4.714;2023-04-23T00:52:39;317.20;;;108.53;;
22786;SDS011;63134;52.020;4.714;2023-04-23T00:55:27;338.13;;;110.75;;
22786;SDS011;63134;52.020;4.714;2023-04-23T00:58:16;321.00;;;107.03;;
22786;SDS011;63134;52.020;4.714;2023-04-23T01:01:04;351.63;;;112.65;;
22786;SDS011;63134;52.020;4.714;2023-04-23T01:03:51;314.15;;;105.78;;
22786;SDS011;63134;52.020;4.714;2023-04-23T01:06:37;325.83;;;111.30;;
22786;SDS011;63134;52.020;4.714;2023-04-23T01:09:25;312.35;;;107.80;;
22786;SDS011;63134;52.020;4.714;2023-04-23T01:12:11;308.38;;;109.40;;
22786;SDS011;63134;52.020;4.714;2023-04-23T01:14:58;311.13;;;108.40;;
22786;SDS011;63134;52.020;4.714;2023-04-23T01:17:44;288.00;;;104.70;;
22786;SDS011;63134;52.020;4.714;2023-04-23T01:20:33;287.13;;;106.45;;
22786;SDS011;63134;52.020;4.714;2023-04-23T01:23:19;283.63;;;105.82;;
22786;SDS011;63134;52.020;4.714;2023-04-23T01:26:04;258.73;;;103.30;;
22786;SDS011;63134;52.020;4.714;2023-04-23T01:28:50;259.20;;;100.28;;
22786;SDS011;63134;52.020;4.714;2023-04-23T01:31:36;239.07;;;96.60;;
22786;SDS011;63134;52.020;4.714;2023-04-23T01:34:21;237.98;;;93.78;;
22786;SDS011;63134;52.020;4.714;2023-04-23T01:37:08;233.18;;;93.70;;
22786;SDS011;63134;52.020;4.714;2023-04-23T01:39:53;240.00;;;94.47;;
22786;SDS011;63134;52.020;4.714;2023-04-23T01:42:43;225.85;;;91.00;;
22786;SDS011;63134;52.020;4.714;2023-04-23T01:45:30;210.52;;;86.90;;
22786;SDS011;63134;52.020;4.714;2023-04-23T01:48:16;206.13;;;86.25;;
22786;SDS011;63134;52.020;4.714;2023-04-23T01:51:01;197.93;;;87.05;;
22786;SDS011;63134;52.020;4.714;2023-04-23T01:53:46;194.30;;;83.07;;
22786;SDS011;63134;52.020;4.714;2023-04-23T01:56:32;192.20;;;83.97;;
22786;SDS011;63134;52.020;4.714;2023-04-23T01:59:20;165.27;;;77.43;;
22786;SDS011;63134;52.020;4.714;2023-04-23T02:02:06;168.63;;;78.57;;
22786;SDS011;63134;52.020;4.714;2023-04-23T02:04:55;150.25;;;72.55;;
22786;SDS011;63134;52.020;4.714;2023-04-23T02:07:48;144.38;;;72.28;;
22786;SDS011;63134;52.020;4.714;2023-04-23T02:10:35;137.60;;;68.55;;
22786;SDS011;63134;52.020;4.714;2023-04-23T02:13:21;122.65;;;65.90;;
22786;SDS011;63134;52.020;4.714;2023-04-23T02:16:06;125.90;;;64.43;;
22786;SDS011;63134;52.020;4.714;2023-04-23T02:18:52;131.10;;;66.80;;
22786;SDS011;63134;52.020;4.714;2023-04-23T02:21:37;123.97;;;64.78;;
22786;SDS011;63134;52.020;4.714;2023-04-23T02:24:23;121.72;;;62.95;;
22786;SDS011;63134;52.020;4.714;2023-04-23T02:27:08;121.15;;;64.35;;
22786;SDS011;63134;52.020;4.714;2023-04-23T02:29:54;119.45;;;62.75;;
22786;SDS011;63134;52.020;4.714;2023-04-23T02:32:40;115.28;;;61.58;;
22786;SDS011;63134;52.020;4.714;2023-04-23T02:35:26;116.72;;;61.75;;
22786;SDS011;63134;52.020;4.714;2023-04-23T02:38:15;103.75;;;57.92;;
22786;SDS011;63134;52.020;4.714;2023-04-23T02:41:03;104.50;;;59.10;;
22786;SDS011;63134;52.020;4.714;2023-04-23T02:43:48;106.95;;;57.85;;
22786;SDS011;63134;52.020;4.714;2023-04-23T02:46:34;99.50;;;56.42;;
22786;SDS011;63134;52.020;4.714;2023-04-23T02:49:21;92.00;;;54.15;;
22786;SDS011;63134;52.020;4.714;2023-04-23T02:52:06;89.72;;;52.60;;
22786;SDS011;63134;52.020;4.714;2023-04-23T02:54:54;89.50;;;50.13;;
22786;SDS011;63134;52.020;4.714;2023-04-23T02:57:40;94.07;;;52.67;;
22786;SDS011;63134;52.020;4.714;2023-04-23T03:00:26;78.45;;;48.63;;
22786;SDS011;63134;52.020;4.714;2023-04-23T03:03:12;76.47;;;49.03;;
22786;SDS011;63134;52.020;4.714;2023-04-23T03:05:58;78.18;;;47.88;;
22786;SDS011;63134;52.020;4.714;2023-04-23T03:08:44;80.05;;;47.47;;
22786;SDS011;63134;52.020;4.714;2023-04-23T03:11:30;73.65;;;45.45;;
22786;SDS011;63134;52.020;4.714;2023-04-23T03:14:16;79.80;;;46.28;;
22786;SDS011;63134;52.020;4.714;2023-04-23T03:17:01;68.97;;;45.40;;
22786;SDS011;63134;52.020;4.714;2023-04-23T03:19:48;74.45;;;46.63;;
22786;SDS011;63134;52.020;4.714;2023-04-23T03:22:34;68.88;;;44.55;;
22786;SDS011;63134;52.020;4.714;2023-04-23T03:25:20;68.25;;;44.80;;
22786;SDS011;63134;52.020;4.714;2023-04-23T03:28:07;62.65;;;43.22;;
22786;SDS011;63134;52.020;4.714;2023-04-23T03:30:53;67.75;;;42.72;;
22786;SDS011;63134;52.020;4.714;2023-04-23T03:33:38;64.63;;;43.28;;
22786;SDS011;63134;52.020;4.714;2023-04-23T03:36:23;70.90;;;43.95;;
22786;SDS011;63134;52.020;4.714;2023-04-23T03:39:09;66.38;;;43.78;;
22786;SDS011;63134;52.020;4.714;2023-04-23T03:42:07;68.97;;;44.65;;
22786;SDS011;63134;52.020;4.714;2023-04-23T03:44:55;66.38;;;42.85;;
22786;SDS011;63134;52.020;4.714;2023-04-23T03:47:40;67.20;;;45.13;;
22786;SDS011;63134;52.020;4.714;2023-04-23T03:50:26;63.90;;;45.28;;
22786;SDS011;63134;52.020;4.714;2023-04-23T03:53:24;70.10;;;44.28;;
22786;SDS011;63134;52.020;4.714;2023-04-23T03:56:35;64.55;;;42.45;;
22786;SDS011;63134;52.020;4.714;2023-04-23T03:59:32;64.70;;;43.15;;
22786;SDS011;63134;52.020;4.714;2023-04-23T04:02:18;60.30;;;41.28;;
22786;SDS011;63134;52.020;4.714;2023-04-23T04:05:06;70.60;;;44.85;;
22786;SDS011;63134;52.020;4.714;2023-04-23T04:07:56;64.63;;;44.15;;
22786;SDS011;63134;52.020;4.714;2023-04-23T04:10:42;67.70;;;45.40;;
22786;SDS011;63134;52.020;4.714;2023-04-23T04:13:28;60.92;;;42.25;;
22786;SDS011;63134;52.020;4.714;2023-04-23T04:16:14;64.60;;;43.97;;
22786;SDS011;63134;52.020;4.714;2023-04-23T04:18:59;63.35;;;43.47;;
22786;SDS011;63134;52.020;4.714;2023-04-23T04:21:45;72.25;;;47.08;;
22786;SDS011;63134;52.020;4.714;2023-04-23T04:24:34;70.57;;;45.65;;
22786;SDS011;63134;52.020;4.714;2023-04-23T04:27:24;65.78;;;43.92;;
22786;SDS011;63134;52.020;4.714;2023-04-23T04:30:09;64.75;;;44.65;;
22786;SDS011;63134;52.020;4.714;2023-04-23T04:32:55;77.80;;;45.65;;
22786;SDS011;63134;52.020;4.714;2023-04-23T04:35:44;70.78;;;45.50;;
22786;SDS011;63134;52.020;4.714;2023-04-23T04:38:30;73.35;;;45.95;;
22786;SDS011;63134;52.020;4.714;2023-04-23T04:41:16;72.75;;;44.67;;
22786;SDS011;63134;52.020;4.714;2023-04-23T04:44:06;69.38;;;45.67;;
22786;SDS011;63134;52.020;4.714;2023-04-23T04:46:54;73.53;;;44.38;;
22786;SDS011;63134;52.020;4.714;2023-04-23T04:49:40;63.75;;;43.75;;
22786;SDS011;63134;52.020;4.714;2023-04-23T04:52:29;65.30;;;42.58;;
22786;SDS011;63134;52.020;4.714;2023-04-23T04:55:14;62.85;;;42.47;;
22786;SDS011;63134;52.020;4.714;2023-04-23T04:58:00;68.40;;;42.25;;
22786;SDS011;63134;52.020;4.714;2023-04-23T05:00:45;60.75;;;42.45;;
22786;SDS011;63134;52.020;4.714;2023-04-23T05:03:36;65.13;;;42.25;;
22786;SDS011;63134;52.020;4.714;2023-04-23T05:06:23;63.17;;;41.17;;
22786;SDS011;63134;52.020;4.714;2023-04-23T05:09:09;63.88;;;41.88;;
22786;SDS011;63134;52.020;4.714;2023-04-23T05:11:55;57.33;;;39.55;;
22786;SDS011;63134;52.020;4.714;2023-04-23T05:14:43;60.60;;;39.13;;
22786;SDS011;63134;52.020;4.714;2023-04-23T05:17:30;61.45;;;39.88;;
22786;SDS011;63134;52.020;4.714;2023-04-23T05:20:16;61.70;;;40.70;;
22786;SDS011;63134;52.020;4.714;2023-04-23T05:23:02;56.38;;;38.38;;
22786;SDS011;63134;52.020;4.714;2023-04-23T05:25:47;55.80;;;38.17;;
22786;SDS011;63134;52.020;4.714;2023-04-23T05:28:38;54.00;;;38.67;;
22786;SDS011;63134;52.020;4.714;2023-04-23T05:31:23;56.67;;;39.70;;
22786;SDS011;63134;52.020;4.714;2023-04-23T05:34:11;54.97;;;39.65;;
22786;SDS011;63134;52.020;4.714;2023-04-23T05:36:58;57.30;;;41.05;;
22786;SDS011;63134;52.020;4.714;2023-04-23T05:39:46;57.35;;;40.00;;
22786;SDS011;63134;52.020;4.714;2023-04-23T05:42:33;53.58;;;38.30;;
22786;SDS011;63134;52.020;4.714;2023-04-23T05:45:19;53.90;;;38.67;;
22786;SDS011;63134;52.020;4.714;2023-04-23T05:48:05;58.00;;;37.10;;
22786;SDS011;63134;52.020;4.714;2023-04-23T05:50:50;50.28;;;37.65;;
22786;SDS011;63134;52.020;4.714;2023-04-23T05:53:36;52.95;;;37.60;;
22786;SDS011;63134;52.020;4.714;2023-04-23T05:56:24;48.88;;;36.55;;
22786;SDS011;63134;52.020;4.714;2023-04-23T05:59:10;45.40;;;34.78;;
22786;SDS011;63134;52.020;4.714;2023-04-23T06:01:55;44.55;;;33.65;;
22786;SDS011;63134;52.020;4.714;2023-04-23T06:04:42;49.72;;;35.47;;
22786;SDS011;63134;52.020;4.714;2023-04-23T06:07:28;46.38;;;33.90;;
22786;SDS011;63134;52.020;4.714;2023-04-23T06:10:14;51.85;;;35.33;;
22786;SDS011;63134;52.020;4.714;2023-04-23T06:13:00;47.05;;;33.67;;
22786;SDS011;63134;52.020;4.714;2023-04-23T06:15:45;45.13;;;32.65;;
22786;SDS011;63134;52.020;4.714;2023-04-23T06:18:31;45.08;;;32.13;;
22786;SDS011;63134;52.020;4.714;2023-04-23T06:21:16;42.15;;;31.13;;
22786;SDS011;63134;52.020;4.714;2023-04-23T06:24:04;38.65;;;31.48;;
22786;SDS011;63134;52.020;4.714;2023-04-23T06:26:49;39.60;;;30.92;;
22786;SDS011;63134;52.020;4.714;2023-04-23T06:29:37;36.83;;;28.55;;
22786;SDS011;63134;52.020;4.714;2023-04-23T06:32:23;34.42;;;27.65;;
22786;SDS011;63134;52.020;4.714;2023-04-23T06:35:10;34.03;;;28.08;;
22786;SDS011;63134;52.020;4.714;2023-04-23T06:37:55;33.97;;;25.92;;
22786;SDS011;63134;52.020;4.714;2023-04-23T06:40:41;37.67;;;26.48;;
22786;SDS011;63134;52.020;4.714;2023-04-23T06:43:26;33.08;;;25.13;;
22786;SDS011;63134;52.020;4.714;2023-04-23T06:46:47;33.53;;;23.90;;
22786;SDS011;63134;52.020;4.714;2023-04-23T06:49:33;30.60;;;24.20;;
22786;SDS011;63134;52.020;4.714;2023-04-23T06:52:18;30.20;;;24.67;;
22786;SDS011;63134;52.020;4.714;2023-04-23T06:55:04;29.75;;;22.95;;
22786;SDS011;63134;52.020;4.714;2023-04-23T06:57:50;30.80;;;23.60;;
22786;SDS011;63134;52.020;4.714;2023-04-23T07:00:38;28.50;;;21.92;;
22786;SDS011;63134;52.020;4.714;2023-04-23T07:03:26;28.20;;;22.38;;
22786;SDS011;63134;52.020;4.714;2023-04-23T07:06:12;27.98;;;20.05;;
22786;SDS011;63134;52.020;4.714;2023-04-23T07:08:57;28.65;;;19.27;;
22786;SDS011;63134;52.020;4.714;2023-04-23T07:11:43;26.05;;;18.27;;
22786;SDS011;63134;52.020;4.714;2023-04-23T07:14:28;23.25;;;17.08;;
22786;SDS011;63134;52.020;4.714;2023-04-23T07:17:14;25.83;;;18.10;;
22786;SDS011;63134;52.020;4.714;2023-04-23T07:19:59;25.88;;;15.70;;
22786;SDS011;63134;52.020;4.714;2023-04-23T07:22:48;25.33;;;15.68;;
22786;SDS011;63134;52.020;4.714;2023-04-23T07:25:43;20.77;;;14.75;;
22786;SDS011;63134;52.020;4.714;2023-04-23T07:28:28;20.92;;;14.52;;
22786;SDS011;63134;52.020;4.714;2023-04-23T07:31:14;23.10;;;14.05;;
22786;SDS011;63134;52.020;4.714;2023-04-23T07:34:00;20.92;;;12.95;;
22786;SDS011;63134;52.020;4.714;2023-04-23T07:36:46;19.70;;;12.10;;
22786;SDS011;63134;52.020;4.714;2023-04-23T07:39:31;17.83;;;11.30;;
22786;SDS011;63134;52.020;4.714;2023-04-23T07:42:17;18.30;;;10.38;;
22786;SDS011;63134;52.020;4.714;2023-04-23T07:45:03;20.73;;;10.40;;
22786;SDS011;63134;52.020;4.714;2023-04-23T07:47:52;21.23;;;9.80;;
22786;SDS011;63134;52.020;4.714;2023-04-23T07:50:40;19.70;;;8.45;;
22786;SDS011;63134;52.020;4.714;2023-04-23T07:53:26;16.58;;;9.00;;
22786;SDS011;63134;52.020;4.714;2023-04-23T07:56:12;16.67;;;8.88;;
22786;SDS011;63134;52.020;4.714;2023-04-23T07:58:58;18.90;;;9.40;;
22786;SDS011;63134;52.020;4.714;2023-04-23T08:01:44;18.17;;;9.32;;
22786;SDS011;63134;52.020;4.714;2023-04-23T08:04:29;25.15;;;9.05;;
22786;SDS011;63134;52.020;4.714;2023-04-23T08:07:15;23.38;;;9.55;;
22786;SDS011;63134;52.020;4.714;2023-04-23T08:10:00;18.42;;;9.10;;
22786;SDS011;63134;52.020;4.714;2023-04-23T08:12:49;15.05;;;8.07;;
22786;SDS011;63134;52.020;4.714;2023-04-23T08:15:35;18.80;;;8.98;;
22786;SDS011;63134;52.020;4.714;2023-04-23T08:18:20;18.77;;;9.15;;
22786;SDS011;63134;52.020;4.714;2023-04-23T08:21:06;17.77;;;9.00;;
22786;SDS011;63134;52.020;4.714;2023-04-23T08:23:51;15.95;;;8.20;;
22786;SDS011;63134;52.020;4.714;2023-04-23T08:26:37;18.08;;;8.52;;
22786;SDS011;63134;52.020;4.714;2023-04-23T08:29:22;16.42;;;8.68;;
22786;SDS011;63134;52.020;4.714;2023-04-23T08:32:08;15.20;;;8.45;;
22786;SDS011;63134;52.020;4.714;2023-04-23T08:34:54;14.15;;;6.95;;
22786;SDS011;63134;52.020;4.714;2023-04-23T08:37:40;12.00;;;7.28;;
22786;SDS011;63134;52.020;4.714;2023-04-23T08:40:26;16.10;;;7.57;;
22786;SDS011;63134;52.020;4.714;2023-04-23T08:43:15;23.02;;;7.63;;
22786;SDS011;63134;52.020;4.714;2023-04-23T08:46:03;15.23;;;6.50;;
22786;SDS011;63134;52.020;4.714;2023-04-23T08:48:52;13.00;;;6.82;;
22786;SDS011;63134;52.020;4.714;2023-04-23T08:51:41;16.58;;;6.93;;
22786;SDS011;63134;52.020;4.714;2023-04-23T08:54:36;20.92;;;6.60;;
22786;SDS011;63134;52.020;4.714;2023-04-23T08:57:29;16.70;;;6.68;;
22786;SDS011;63134;52.020;4.714;2023-04-23T09:00:16;14.25;;;6.78;;
22786;SDS011;63134;52.020;4.714;2023-04-23T09:03:02;19.58;;;7.22;;
22786;SDS011;63134;52.020;4.714;2023-04-23T09:05:50;16.17;;;7.05;;
22786;SDS011;63134;52.020;4.714;2023-04-23T09:08:37;11.45;;;6.03;;
22786;SDS011;63134;52.020;4.714;2023-04-23T09:11:22;16.65;;;6.32;;
22786;SDS011;63134;52.020;4.714;2023-04-23T09:14:11;16.50;;;6.07;;
22786;SDS011;63134;52.020;4.714;2023-04-23T09:16:57;19.17;;;6.68;;
22786;SDS011;63134;52.020;4.714;2023-04-23T09:19:42;15.65;;;6.10;;
22786;SDS011;63134;52.020;4.714;2023-04-23T09:22:37;18.88;;;6.20;;
22786;SDS011;63134;52.020;4.714;2023-04-23T09:25:23;14.57;;;5.95;;
22786;SDS011;63134;52.020;4.714;2023-04-23T09:28:09;15.50;;;6.32;;
22786;SDS011;63134;52.020;4.714;2023-04-23T09:30:56;14.05;;;5.65;;
22786;SDS011;63134;52.020;4.714;2023-04-23T09:33:42;13.18;;;6.25;;
22786;SDS011;63134;52.020;4.714;2023-04-23T09:36:34;13.60;;;6.32;;
22786;SDS011;63134;52.020;4.714;2023-04-23T09:39:21;16.83;;;6.35;;
22786;SDS011;63134;52.020;4.714;2023-04-23T09:42:07;17.38;;;6.35;;
22786;SDS011;63134;52.020;4.714;2023-04-23T09:44:56;17.33;;;6.93;;
22786;SDS011;63134;52.020;4.714;2023-04-23T09:47:49;14.02;;;6.47;;
22786;SDS011;63134;52.020;4.714;2023-04-23T09:50:37;13.60;;;6.20;;
22786;SDS011;63134;52.020;4.714;2023-04-23T09:53:25;13.75;;;5.75;;
22786;SDS011;63134;52.020;4.714;2023-04-23T09:56:10;13.57;;;6.15;;
22786;SDS011;63134;52.020;4.714;2023-04-23T09:58:56;19.15;;;7.00;;
22786;SDS011;63134;52.020;4.714;2023-04-23T10:01:43;19.30;;;5.22;;
22786;SDS011;63134;52.020;4.714;2023-04-23T10:04:30;19.42;;;6.00;;
22786;SDS011;63134;52.020;4.714;2023-04-23T10:07:16;17.63;;;5.18;;
22786;SDS011;63134;52.020;4.714;2023-04-23T10:10:04;16.13;;;4.63;;
22786;SDS011;63134;52.020;4.714;2023-04-23T10:12:51;17.92;;;4.60;;
22786;SDS011;63134;52.020;4.714;2023-04-23T10:15:39;17.65;;;4.72;;
22786;SDS011;63134;52.020;4.714;2023-04-23T10:18:25;15.38;;;4.55;;
22786;SDS011;63134;52.020;4.714;2023-04-23T10:21:10;15.07;;;4.32;;
22786;SDS011;63134;52.020;4.714;2023-04-23T10:23:58;15.10;;;3.78;;
22786;SDS011;63134;52.020;4.714;2023-04-23T10:26:50;15.20;;;5.35;;
22786;SDS011;63134;52.020;4.714;2023-04-23T10:29:38;10.23;;;3.53;;
22786;SDS011;63134;52.020;4.714;2023-04-23T10:32:24;11.15;;;3.97;;
22786;SDS011;63134;52.020;4.714;2023-04-23T10:35:11;12.05;;;3.58;;
22786;SDS011;63134;52.020;4.714;2023-04-23T10:37:57;13.13;;;3.65;;
22786;SDS011;63134;52.020;4.714;2023-04-23T10:40:43;13.63;;;3.75;;
22786;SDS011;63134;52.020;4.714;2023-04-23T10:43:30;14.15;;;3.13;;
22786;SDS011;63134;52.020;4.714;2023-04-23T10:46:29;15.88;;;3.85;;
22786;SDS011;63134;52.020;4.714;2023-04-23T10:49:15;9.82;;;3.10;;
22786;SDS011;63134;52.020;4.714;2023-04-23T10:52:02;9.35;;;2.45;;
22786;SDS011;63134;52.020;4.714;2023-04-23T10:55:14;7.28;;;2.83;;
22786;SDS011;63134;52.020;4.714;2023-04-23T10:58:05;10.90;;;3.35;;
22786;SDS011;63134;52.020;4.714;2023-04-23T11:00:52;17.40;;;3.30;;
22786;SDS011;63134;52.020;4.714;2023-04-23T11:03:43;11.02;;;2.92;;
22786;SDS011;63134;52.020;4.714;2023-04-23T11:15:17;7.32;;;2.58;;
22786;SDS011;63134;52.020;4.714;2023-04-23T11:18:03;13.13;;;2.92;;
22786;SDS011;63134;52.020;4.714;2023-04-23T11:20:49;7.18;;;2.60;;
22786;SDS011;63134;52.020;4.714;2023-04-23T11:23:35;14.25;;;3.08;;
22786;SDS011;63134;52.020;4.714;2023-04-23T11:26:23;13.20;;;3.13;;
22786;SDS011;63134;52.020;4.714;2023-04-23T11:29:14;10.18;;;3.08;;
22786;SDS011;63134;52.020;4.714;2023-04-23T11:32:02;10.55;;;2.35;;
22786;SDS011;63134;52.020;4.714;2023-04-23T11:34:49;12.35;;;2.90;;
22786;SDS011;63134;52.020;4.714;2023-04-23T11:37:42;12.10;;;2.25;;
22786;SDS011;63134;52.020;4.714;2023-04-23T11:40:29;8.07;;;2.47;;
22786;SDS011;63134;52.020;4.714;2023-04-23T11:43:19;9.00;;;2.50;;
22786;SDS011;63134;52.020;4.714;2023-04-23T11:46:05;12.95;;;2.80;;
22786;SDS011;63134;52.020;4.714;2023-04-23T11:48:50;10.15;;;2.85;;
22786;SDS011;63134;52.020;4.714;2023-04-23T11:51:39;9.73;;;2.00;;
22786;SDS011;63134;52.020;4.714;2023-04-23T11:54:27;8.75;;;2.10;;
22786;SDS011;63134;52.020;4.714;2023-04-23T11:57:14;5.18;;;1.75;;
22786;SDS011;63134;52.020;4.714;2023-04-23T12:00:00;8.65;;;2.40;;
22786;SDS011;63134;52.020;4.714;2023-04-23T12:02:56;10.05;;;2.55;;
22786;SDS011;63134;52.020;4.714;2023-04-23T12:05:46;11.40;;;2.78;;
22786;SDS011;63134;52.020;4.714;2023-04-23T12:08:32;7.97;;;2.67;;
22786;SDS011;63134;52.020;4.714;2023-04-23T12:11:19;8.10;;;2.35;;
22786;SDS011;63134;52.020;4.714;2023-04-23T12:14:08;12.43;;;2.60;;
22786;SDS011;63134;52.020;4.714;2023-04-23T12:16:55;18.48;;;2.58;;
22786;SDS011;63134;52.020;4.714;2023-04-23T12:19:41;13.13;;;2.55;;
22786;SDS011;63134;52.020;4.714;2023-04-23T12:22:28;6.75;;;2.28;;
22786;SDS011;63134;52.020;4.714;2023-04-23T12:25:14;10.35;;;2.17;;
22786;SDS011;63134;52.020;4.714;2023-04-23T12:28:00;6.30;;;1.60;;
22786;SDS011;63134;52.020;4.714;2023-04-23T12:30:47;7.93;;;2.10;;
22786;SDS011;63134;52.020;4.714;2023-04-23T12:33:33;4.72;;;1.73;;
22786;SDS011;63134;52.020;4.714;2023-04-23T12:36:18;7.32;;;2.03;;
22786;SDS011;63134;52.020;4.714;2023-04-23T12:42:18;9.82;;;2.33;;
22786;SDS011;63134;52.020;4.714;2023-04-23T12:45:04;11.25;;;2.05;;
22786;SDS011;63134;52.020;4.714;2023-04-23T12:47:52;14.48;;;2.47;;
22786;SDS011;63134;52.020;4.714;2023-04-23T12:50:37;8.25;;;2.25;;
22786;SDS011;63134;52.020;4.714;2023-04-23T12:53:23;9.90;;;2.50;;
22786;SDS011;63134;52.020;4.714;2023-04-23T12:56:08;7.00;;;1.90;;
22786;SDS011;63134;52.020;4.714;2023-04-23T12:58:57;9.48;;;2.38;;
22786;SDS011;63134;52.020;4.714;2023-04-23T13:01:45;8.25;;;2.13;;
22786;SDS011;63134;52.020;4.714;2023-04-23T13:04:32;7.65;;;1.92;;
22786;SDS011;63134;52.020;4.714;2023-04-23T13:07:19;13.50;;;2.92;;
22786;SDS011;63134;52.020;4.714;2023-04-23T13:10:09;8.80;;;2.40;;
22786;SDS011;63134;52.020;4.714;2023-04-23T13:12:58;14.00;;;3.63;;
22786;SDS011;63134;52.020;4.714;2023-04-23T13:15:43;11.65;;;3.28;;
22786;SDS011;63134;52.020;4.714;2023-04-23T13:18:28;10.80;;;2.55;;
22786;SDS011;63134;52.020;4.714;2023-04-23T13:21:14;10.40;;;2.38;;
22786;SDS011;63134;52.020;4.714;2023-04-23T13:24:00;10.68;;;2.78;;
22786;SDS011;63134;52.020;4.714;2023-04-23T13:26:45;9.88;;;2.88;;
22786;SDS011;63134;52.020;4.714;2023-04-23T13:29:31;16.98;;;2.85;;
22786;SDS011;63134;52.020;4.714;2023-04-23T13:32:16;12.48;;;2.85;;
22786;SDS011;63134;52.020;4.714;2023-04-23T13:35:06;10.13;;;2.92;;
22786;SDS011;63134;52.020;4.714;2023-04-23T13:37:52;8.98;;;2.78;;
22786;SDS011;63134;52.020;4.714;2023-04-23T13:40:38;9.68;;;2.60;;
22786;SDS011;63134;52.020;4.714;2023-04-23T13:43:23;10.43;;;2.65;;
22786;SDS011;63134;52.020;4.714;2023-04-23T13:46:09;10.70;;;2.40;;
22786;SDS011;63134;52.020;4.714;2023-04-23T13:48:56;11.90;;;2.92;;
22786;SDS011;63134;52.020;4.714;2023-04-23T13:51:51;7.47;;;2.10;;
22786;SDS011;63134;52.020;4.714;2023-04-23T13:54:38;6.75;;;2.28;;
22786;SDS011;63134;52.020;4.714;2023-04-23T13:57:23;14.15;;;2.72;;
22786;SDS011;63134;52.020;4.714;2023-04-23T14:00:09;10.75;;;2.90;;
22786;SDS011;63134;52.020;4.714;2023-04-23T14:02:55;10.52;;;2.53;;
22786;SDS011;63134;52.020;4.714;2023-04-23T14:05:41;10.27;;;2.67;;
22786;SDS011;63134;52.020;4.714;2023-04-23T14:08:26;10.80;;;3.03;;
22786;SDS011;63134;52.020;4.714;2023-04-23T14:11:12;17.90;;;3.47;;
22786;SDS011;63134;52.020;4.714;2023-04-23T14:13:58;13.27;;;3.78;;
22786;SDS011;63134;52.020;4.714;2023-04-23T14:16:44;11.05;;;4.10;;
22786;SDS011;63134;52.020;4.714;2023-04-23T14:19:30;10.65;;;3.47;;
22786;SDS011;63134;52.020;4.714;2023-04-23T14:22:18;11.13;;;3.70;;
22786;SDS011;63134;52.020;4.714;2023-04-23T14:25:23;14.70;;;4.63;;
22786;SDS011;63134;52.020;4.714;2023-04-23T14:28:23;14.40;;;4.47;;
22786;SDS011;63134;52.020;4.714;2023-04-23T14:31:19;15.40;;;4.80;;
22786;SDS011;63134;52.020;4.714;2023-04-23T14:34:09;17.90;;;5.00;;
22786;SDS011;63134;52.020;4.714;2023-04-23T14:36:56;16.35;;;4.95;;
22786;SDS011;63134;52.020;4.714;2023-04-23T14:39:41;22.35;;;5.60;;
22786;SDS011;63134;52.020;4.714;2023-04-23T14:42:27;7.78;;;3.58;;
22786;SDS011;63134;52.020;4.714;2023-04-23T14:45:14;13.70;;;4.53;;
22786;SDS011;63134;52.020;4.714;2023-04-23T14:48:01;15.07;;;5.32;;
22786;SDS011;63134;52.020;4.714;2023-04-23T14:50:47;15.73;;;4.97;;
22786;SDS011;63134;52.020;4.714;2023-04-23T14:53:35;11.85;;;3.97;;
22786;SDS011;63134;52.020;4.714;2023-04-23T14:56:24;11.80;;;4.40;;
22786;SDS011;63134;52.020;4.714;2023-04-23T14:59:10;14.25;;;4.53;;
22786;SDS011;63134;52.020;4.714;2023-04-23T15:01:56;13.02;;;5.70;;
22786;SDS011;63134;52.020;4.714;2023-04-23T15:04:41;16.38;;;6.63;;
22786;SDS011;63134;52.020;4.714;2023-04-23T15:07:29;19.83;;;6.38;;
22786;SDS011;63134;52.020;4.714;2023-04-23T15:10:17;17.55;;;4.93;;
22786;SDS011;63134;52.020;4.714;2023-04-23T15:13:07;15.30;;;5.10;;
22786;SDS011;63134;52.020;4.714;2023-04-23T15:16:17;14.50;;;4.55;;
22786;SDS011;63134;52.020;4.714;2023-04-23T15:19:30;12.93;;;4.22;;
22786;SDS011;63134;52.020;4.714;2023-04-23T15:22:16;12.85;;;4.07;;
22786;SDS011;63134;52.020;4.714;2023-04-23T15:25:02;7.78;;;3.20;;
22786;SDS011;63134;52.020;4.714;2023-04-23T15:27:47;9.30;;;3.53;;
22786;SDS011;63134;52.020;4.714;2023-04-23T15:30:35;9.98;;;2.88;;
22786;SDS011;63134;52.020;4.714;2023-04-23T15:33:20;6.53;;;2.38;;
22786;SDS011;63134;52.020;4.714;2023-04-23T15:36:06;9.90;;;2.70;;
22786;SDS011;63134;52.020;4.714;2023-04-23T15:38:52;8.52;;;2.85;;
22786;SDS011;63134;52.020;4.714;2023-04-23T15:41:38;10.43;;;2.95;;
22786;SDS011;63134;52.020;4.714;2023-04-23T15:44:25;9.55;;;2.28;;
22786;SDS011;63134;52.020;4.714;2023-04-23T15:47:11;7.22;;;2.30;;
22786;SDS011;63134;52.020;4.714;2023-04-23T15:49:56;10.18;;;2.40;;
22786;SDS011;63134;52.020;4.714;2023-04-23T15:52:42;6.68;;;2.10;;
22786;SDS011;63134;52.020;4.714;2023-04-23T15:55:27;8.43;;;2.50;;
22786;SDS011;63134;52.020;4.714;2023-04-23T15:58:13;7.82;;;2.47;;
22786;SDS011;63134;52.020;4.714;2023-04-23T16:00:59;11.75;;;3.03;;
22786;SDS011;63134;52.020;4.714;2023-04-23T16:03:47;8.35;;;2.72;;
22786;SDS011;63134;52.020;4.714;2023-04-23T16:06:52;9.18;;;2.20;;
22786;SDS011;63134;52.020;4.714;2023-04-23T16:09:38;7.47;;;2.42;;
22786;SDS011;63134;52.020;4.714;2023-04-23T16:12:25;4.57;;;2.03;;
22786;SDS011;63134;52.020;4.714;2023-04-23T16:15:11;8.93;;;2.33;;
22786;SDS011;63134;52.020;4.714;2023-04-23T16:17:57;4.90;;;1.98;;
22786;SDS011;63134;52.020;4.714;2023-04-23T16:20:43;5.93;;;2.25;;
22786;SDS011;63134;52.020;4.714;2023-04-23T16:23:29;6.32;;;2.20;;
22786;SDS011;63134;52.020;4.714;2023-04-23T16:26:14;8.13;;;2.20;;
22786;SDS011;63134;52.020;4.714;2023-04-23T16:29:01;7.13;;;2.55;;
22786;SDS011;63134;52.020;4.714;2023-04-23T16:31:55;12.27;;;3.33;;
22786;SDS011;63134;52.020;4.714;2023-04-23T16:34:40;7.28;;;2.30;;
22786;SDS011;63134;52.020;4.714;2023-04-23T16:37:26;9.85;;;2.55;;